Adamsville, Rhode Island
Current Conditions -  °F | °C
As of 3:53 PM on Tuesday 21 Oct 2014 (Local Time) from KUUU Reporting Station
Scattered Clouds Scattered Clouds  
Wind Chill: 64°   Ceiling: Unl
Heat Index: 64°   Visibility: 10mi
Dew Point: 56°   Wind: 6mph
Humidity: 75%   Direction: 110°ESE
Pressure: 29.88"   Gusts: NA
Location:  41.55°N, 71.13°W
Report Text: KUUU 211953Z AUTO 11005KT 10SM SCT013 18/13 A2988 RMK AO2 SLP118 T01780133
Loading
Personal Weather Stations






























Interactive Weather Map
Tropical Storm Tracking
New forecast layout! Learn more

10-Day Weather Forecast

Advertisements
Track Severe Weather on mobile